Time;durP1;ratioP1;P1;durP2;ratioP2;P2;SDS_P1;SDS_P2;PMS_P1;PMS_P2;Temp;Humidity;BMP_temperature;BMP_pressure;BME280_temperature;BME280_humidity;BME280_pressure;Samples;Min_cycle;Max_cycle;Signal;HPM_P1;HPM_P2
2022/05/08 00:01:48;;;;;;;10.43;5.68;;;12.60;99.90;;;;;;5054169;28;20526;-30
2022/05/08 00:04:14;;;;;;;13.43;5.65;;;12.60;99.90;;;;;;5054125;28;20070;-34
2022/05/08 00:06:39;;;;;;;15.50;5.20;;;12.50;99.90;;;;;;5054170;28;20025;-37
2022/05/08 00:09:05;;;;;;;12.95;5.40;;;12.50;99.90;;;;;;5054108;28;20025;-37
2022/05/08 00:11:31;;;;;;;10.82;5.20;;;12.50;99.90;;;;;;5053915;28;20036;-57
2022/05/08 00:13:56;;;;;;;7.75;4.50;;;12.50;99.90;;;;;;5052678;28;20039;-37
2022/05/08 00:16:23;;;;;;;10.20;4.57;;;12.50;99.90;;;;;;5053731;28;20057;-41
2022/05/08 00:18:48;;;;;;;15.00;5.50;;;12.40;99.90;;;;;;5054058;28;20044;-37
2022/05/08 00:21:14;;;;;;;16.95;5.50;;;12.30;99.90;;;;;;5053851;28;20025;-41
2022/05/08 00:23:40;;;;;;;9.20;4.38;;;12.30;99.90;;;;;;5052613;28;20125;-37
2022/05/08 00:26:07;;;;;;;10.13;4.43;;;12.20;99.90;;;;;;5053791;28;20469;-37
2022/05/08 00:28:34;;;;;;;;;;;12.10;99.90;;;;;;5053748;28;20029;-36
2022/05/08 00:31:00;;;;;;;8.57;5.13;;;12.10;99.90;;;;;;5053665;28;19905;-36
2022/05/08 00:33:25;;;;;;;13.00;5.03;;;12.00;99.90;;;;;;5051711;28;20029;-36
2022/05/08 00:35:51;;;;;;;6.57;4.03;;;11.90;99.90;;;;;;5032381;28;20072;-36
2022/05/08 00:38:16;;;;;;;10.55;4.55;;;12.00;99.90;;;;;;5033588;28;20444;-37
2022/05/08 00:40:42;;;;;;;16.67;4.65;;;11.90;99.90;;;;;;5032835;28;20021;-31
2022/05/08 00:43:33;;;;;;;12.98;4.65;;;11.90;99.90;;;;;;5033465;28;20018;-32
2022/05/08 00:46:01;;;;;;;9.18;3.78;;;12.00;99.90;;;;;;5033376;28;20024;-47
2022/05/08 00:48:26;;;;;;;10.82;3.85;;;11.90;99.90;;;;;;5033537;28;20040;-37
2022/05/08 00:50:52;;;;;;;7.80;3.25;;;11.90;99.90;;;;;;5033646;28;20517;-36
2022/05/08 00:53:19;;;;;;;10.35;3.67;;;11.80;99.90;;;;;;5033407;28;20108;-36
2022/05/08 00:55:45;;;;;;;16.08;4.07;;;11.70;99.90;;;;;;5033416;28;20029;-35
2022/05/08 00:58:11;;;;;;;10.40;3.55;;;11.70;99.90;;;;;;5033351;28;20025;-37
2022/05/08 01:00:37;;;;;;;6.13;3.65;;;11.70;99.90;;;;;;5033273;28;20022;-36
2022/05/08 01:03:03;;;;;;;10.90;3.22;;;11.60;99.90;;;;;;5033238;28;20025;-38
2022/05/08 01:05:29;;;;;;;21.90;3.80;;;11.50;99.90;;;;;;5033266;28;20029;-53
2022/05/08 01:07:55;;;;;;;22.00;3.33;;;11.50;99.90;;;;;;5033185;28;20025;-38
2022/05/08 01:10:20;;;;;;;18.77;2.92;;;11.40;99.90;;;;;;5033143;28;20029;-38
2022/05/08 01:12:46;;;;;;;17.88;3.10;;;11.40;99.90;;;;;;5033186;28;20029;-36
2022/05/08 01:15:14;;;;;;;16.60;3.25;;;11.40;99.90;;;;;;5033102;28;20033;-38
2022/05/08 01:17:40;;;;;;;19.10;3.70;;;11.40;99.90;;;;;;5031556;28;20121;-38
2022/05/08 01:20:06;;;;;;;18.60;2.47;;;11.30;99.90;;;;;;5033033;28;20163;-36
2022/05/08 01:22:32;;;;;;;17.50;2.85;;;11.30;99.90;;;;;;5031779;28;20025;-37
2022/05/08 01:25:02;;;;;;;13.77;3.00;;;11.30;99.90;;;;;;5033035;28;20013;-38
2022/05/08 01:27:28;;;;;;;20.05;2.67;;;11.40;99.90;;;;;;5032933;28;20026;-36
2022/05/08 01:29:53;;;;;;;13.27;2.88;;;11.30;99.90;;;;;;5031771;28;20037;-36
2022/05/08 01:32:19;;;;;;;9.02;2.00;;;11.30;99.90;;;;;;5032981;28;20021;-37
2022/05/08 01:34:45;;;;;;;14.98;2.58;;;11.20;99.90;;;;;;5033161;28;20033;-37
2022/05/08 01:37:11;;;;;;;15.63;2.22;;;11.10;99.90;;;;;;5032899;28;20034;-36
2022/05/08 01:39:36;;;;;;;15.95;2.28;;;11.00;99.90;;;;;;5033626;28;20056;-37
2022/05/08 01:42:04;;;;;;;14.18;2.88;;;11.00;99.90;;;;;;5036889;28;20519;-38
2022/05/08 01:44:30;;;;;;;;;;;11.10;99.90;;;;;;5037668;28;20105;-43
2022/05/08 01:49:40;;;;;;;10.95;2.47;;;11.00;99.90;;;;;;5036733;28;20563;-38
2022/05/08 01:52:06;;;;;;;19.17;2.33;;;11.00;99.90;;;;;;5037091;28;20025;-37
2022/05/08 01:54:32;;;;;;;16.27;2.75;;;11.00;99.90;;;;;;5036648;28;20037;-56
2022/05/08 01:56:57;;;;;;;13.25;3.42;;;11.00;99.90;;;;;;5036661;28;20022;-37
2022/05/08 01:59:23;;;;;;;13.13;3.33;;;10.90;99.90;;;;;;5036642;28;20100;-36
2022/05/08 02:01:49;;;;;;;9.32;2.45;;;10.90;99.90;;;;;;5036507;28;20025;-37
2022/05/08 02:04:15;;;;;;;8.57;2.38;;;10.80;99.90;;;;;;5036562;28;20045;-38
2022/05/08 02:06:42;;;;;;;16.15;2.30;;;10.70;99.90;;;;;;5035559;28;20017;-37
2022/05/08 02:09:07;;;;;;;13.10;2.28;;;10.70;99.90;;;;;;5036615;28;20022;-37
2022/05/08 02:11:33;;;;;;;28.98;2.85;;;10.60;99.90;;;;;;5036365;28;20013;-37
2022/05/08 02:13:58;;;;;;;32.13;2.50;;;10.60;99.90;;;;;;5036329;28;20025;-37
2022/05/08 02:16:25;;;;;;;13.70;2.67;;;10.60;99.90;;;;;;5036155;28;20485;-38
2022/05/08 02:18:51;;;;;;;13.63;2.03;;;10.60;99.90;;;;;;5036346;28;20493;-36
2022/05/08 02:21:17;;;;;;;18.10;2.40;;;10.50;99.90;;;;;;5036233;28;20104;-35
2022/05/08 02:23:43;;;;;;;22.08;2.72;;;10.50;99.90;;;;;;5036172;28;20017;-37
2022/05/08 02:26:08;;;;;;;17.48;2.22;;;10.40;99.90;;;;;;5036396;28;20438;-36
2022/05/08 02:28:34;;;;;;;16.40;2.35;;;10.30;99.90;;;;;;5034453;28;20125;-36
2022/05/08 02:31:00;;;;;;;11.93;2.17;;;10.20;99.90;;;;;;5036076;28;20026;-36
2022/05/08 02:33:26;;;;;;;23.25;3.17;;;10.30;99.90;;;;;;5035915;28;20488;-38
2022/05/08 02:35:52;;;;;;;15.60;2.50;;;10.20;99.90;;;;;;5035921;28;20466;-49
2022/05/08 02:38:17;;;;;;;10.43;1.90;;;10.20;99.90;;;;;;5035807;28;20454;-36
2022/05/08 02:40:43;;;;;;;23.35;3.67;;;10.20;99.90;;;;;;5035772;28;20029;-40
2022/05/08 02:43:08;;;;;;;21.77;2.90;;;10.20;99.90;;;;;;5035787;28;20025;-38
2022/05/08 02:45:34;;;;;;;19.58;2.47;;;10.20;99.90;;;;;;5035776;28;20025;-38
2022/05/08 02:48:00;;;;;;;17.15;3.03;;;10.10;99.90;;;;;;5035741;28;20032;-37
2022/05/08 02:50:26;;;;;;;14.45;2.35;;;10.10;99.90;;;;;;5035628;28;20033;-30
2022/05/08 02:52:51;;;;;;;21.45;2.30;;;9.90;99.90;;;;;;5035109;28;20122;-32
2022/05/08 03:00:47;;;;;;;18.48;3.55;;;9.90;99.90;;;;;;5035422;28;20040;-30
2022/05/08 03:03:14;;;;;;;10.83;2.67;;;9.90;99.90;;;;;;5035419;28;20032;-31
2022/05/08 03:05:45;;;;;;;15.50;2.60;;;9.90;99.90;;;;;;5035347;28;20268;-29
2022/05/08 03:08:11;;;;;;;19.70;3.22;;;9.90;99.90;;;;;;5035541;28;20025;-32
2022/05/08 03:13:21;;;;;;;14.18;3.33;;;9.90;99.90;;;;;;5035426;28;20040;-31
2022/05/08 03:15:47;;;;;;;18.02;2.35;;;9.80;99.90;;;;;;5035079;28;20017;-29
2022/05/08 03:18:14;;;;;;;20.42;3.08;;;9.80;99.90;;;;;;5034949;28;20459;-37
2022/05/08 03:20:40;;;;;;;16.75;2.35;;;9.80;99.90;;;;;;5035181;28;20478;-37
2022/05/08 03:23:06;;;;;;;16.30;2.58;;;9.80;99.90;;;;;;5034997;28;20025;-37
2022/05/08 03:25:31;;;;;;;9.02;1.98;;;9.70;99.90;;;;;;5035057;28;20036;-38
2022/05/08 03:27:57;;;;;;;11.00;2.78;;;9.70;99.90;;;;;;5035013;28;20083;-36
2022/05/08 03:30:24;;;;;;;18.10;2.58;;;9.70;99.90;;;;;;5034893;28;20510;-36
2022/05/08 03:32:49;;;;;;;12.38;1.52;;;9.60;99.90;;;;;;5033639;28;20405;-36
2022/05/08 03:35:15;;;;;;;16.85;3.53;;;9.60;99.90;;;;;;5034837;28;20025;-58
2022/05/08 03:37:41;;;;;;;15.35;3.55;;;9.60;99.90;;;;;;5034773;28;20057;-36
2022/05/08 03:40:07;;;;;;;18.40;3.10;;;9.60;99.90;;;;;;5034660;28;20032;-43
2022/05/08 03:42:32;;;;;;;18.63;2.53;;;9.60;99.90;;;;;;5034662;28;20036;-38
2022/05/08 03:44:58;;;;;;;10.20;2.40;;;9.60;99.90;;;;;;5034723;28;20033;-37
2022/05/08 03:47:24;;;;;;;20.23;3.00;;;9.50;99.90;;;;;;5034512;28;20216;-39
2022/05/08 03:49:50;;;;;;;14.70;2.97;;;9.50;99.90;;;;;;5034615;28;20044;-36
2022/05/08 03:52:15;;;;;;;16.50;3.58;;;9.50;99.90;;;;;;5034722;28;20373;-39
2022/05/08 03:54:41;;;;;;;14.18;2.95;;;9.60;99.90;;;;;;5034368;28;20044;-37
2022/05/08 03:57:07;;;;;;;28.48;4.05;;;9.50;99.90;;;;;;5034278;28;20501;-36
2022/05/08 03:59:32;;;;;;;14.80;3.05;;;9.50;99.90;;;;;;5034632;28;20032;-36
2022/05/08 04:01:58;;;;;;;15.57;3.58;;;9.50;99.90;;;;;;5034348;28;20030;-37
2022/05/08 04:04:24;;;;;;;18.45;2.35;;;9.50;99.90;;;;;;5033232;28;20033;-36
2022/05/08 04:06:50;;;;;;;14.70;2.88;;;9.50;99.90;;;;;;5034240;28;20030;-36
2022/05/08 04:09:18;;;;;;;13.43;3.42;;;9.40;99.90;;;;;;5034152;28;20037;-37
2022/05/08 04:11:44;;;;;;;13.85;2.55;;;9.40;99.90;;;;;;5034106;28;20501;-29
2022/05/08 04:14:09;;;;;;;19.42;2.80;;;9.40;99.90;;;;;;5034098;28;20030;-30
2022/05/08 04:16:35;;;;;;;19.50;3.30;;;9.30;99.90;;;;;;5033693;28;20053;-38
2022/05/08 04:19:01;;;;;;;8.68;2.85;;;9.40;99.90;;;;;;5034059;28;20091;-30
2022/05/08 04:21:27;;;;;;;18.45;2.63;;;9.30;99.90;;;;;;5033935;28;20033;-29
2022/05/08 04:26:37;;;;;;;20.00;2.88;;;9.30;99.90;;;;;;5033842;28;20448;-38
2022/05/08 04:29:03;;;;;;;13.77;2.33;;;9.40;99.90;;;;;;5033819;28;20026;-38
2022/05/08 04:31:29;;;;;;;15.88;2.65;;;9.40;99.90;;;;;;5034085;28;20382;-31
2022/05/08 04:33:54;;;;;;;7.63;2.92;;;9.40;99.90;;;;;;5032441;28;20018;-30
2022/05/08 04:36:20;;;;;;;10.73;2.17;;;9.40;99.90;;;;;;5033671;28;20029;-31
2022/05/08 04:38:46;;;;;;;15.85;3.40;;;9.30;99.90;;;;;;5032327;28;20466;-30
2022/05/08 04:41:12;;;;;;;11.52;2.70;;;9.30;99.90;;;;;;5033588;28;20519;-33
2022/05/08 04:43:37;;;;;;;13.60;2.70;;;9.30;99.90;;;;;;5033569;28;20021;-32
2022/05/08 04:46:03;;;;;;;8.10;2.55;;;9.30;99.90;;;;;;5033549;28;20111;-29
2022/05/08 04:48:29;;;;;;;5.85;1.73;;;9.30;99.90;;;;;;5033524;28;20470;-29
2022/05/08 04:50:55;;;;;;;15.95;3.35;;;9.40;99.90;;;;;;5033681;28;20017;-30
2022/05/08 04:53:20;;;;;;;17.33;2.40;;;9.40;99.90;;;;;;5033395;28;20033;-32
2022/05/08 04:55:46;;;;;;;13.70;3.15;;;9.40;99.90;;;;;;5033717;28;20021;-36
2022/05/08 04:58:11;;;;;;;17.88;3.10;;;9.30;99.90;;;;;;5033309;28;20030;-37
2022/05/08 05:00:37;;;;;;;10.07;2.50;;;9.40;99.90;;;;;;5033370;28;20462;-39
2022/05/08 05:03:03;;;;;;;11.35;2.67;;;9.40;99.90;;;;;;5033226;28;20045;-40
2022/05/08 05:05:29;;;;;;;11.15;3.17;;;9.50;99.90;;;;;;5033303;28;20022;-32
2022/05/08 05:07:55;;;;;;;13.82;2.20;;;9.50;99.90;;;;;;5033248;28;20028;-30
2022/05/08 05:10:21;;;;;;;16.08;2.58;;;9.60;99.90;;;;;;5033190;28;20029;-33
2022/05/08 05:12:47;;;;;;;11.73;2.85;;;9.60;99.90;;;;;;5033140;28;20390;-33
2022/05/08 05:15:12;;;;;;;16.58;3.45;;;9.70;99.90;;;;;;5032810;28;20026;-28
2022/05/08 05:17:38;;;;;;;21.85;3.17;;;9.70;99.90;;;;;;5032871;28;20044;-32
2022/05/08 05:20:04;;;;;;;11.40;2.58;;;9.70;99.90;;;;;;5033074;28;20022;-31
2022/05/08 05:22:30;;;;;;;14.80;2.90;;;9.70;99.90;;;;;;5033041;28;20026;-29
2022/05/08 05:24:56;;;;;;;18.63;2.58;;;9.60;99.90;;;;;;5033085;28;20030;-32
2022/05/08 05:27:23;;;;;;;14.85;2.53;;;9.70;99.90;;;;;;5033091;28;20492;-37
2022/05/08 05:29:49;;;;;;;12.15;4.18;;;9.70;99.90;;;;;;5031962;28;20053;-36
2022/05/08 05:32:15;;;;;;;14.70;2.30;;;9.80;99.90;;;;;;5033069;28;20030;-37
2022/05/08 05:34:41;;;;;;;12.63;2.75;;;9.80;99.90;;;;;;5032932;28;20455;-37
2022/05/08 05:37:07;;;;;;;18.45;3.03;;;9.70;99.90;;;;;;5032914;28;20021;-37
2022/05/08 05:39:32;;;;;;;14.75;3.28;;;9.80;99.90;;;;;;5033181;28;20120;-38
2022/05/08 05:41:58;;;;;;;8.27;2.13;;;9.90;99.90;;;;;;5033247;28;20072;-37
2022/05/08 05:44:24;;;;;;;10.52;2.17;;;10.10;99.90;;;;;;5032877;28;20477;-39
2022/05/08 05:49:33;;;;;;;11.65;2.97;;;10.30;99.90;;;;;;5032990;28;20041;-45
2022/05/08 05:52:00;;;;;;;16.45;2.83;;;10.40;99.90;;;;;;5032906;28;20470;-35
2022/05/08 05:54:26;;;;;;;11.57;2.25;;;10.50;99.90;;;;;;5033027;28;20489;-30
2022/05/08 05:56:52;;;;;;;19.05;2.83;;;10.50;99.90;;;;;;5032673;28;20101;-33
2022/05/08 05:59:17;;;;;;;13.65;2.60;;;10.60;99.90;;;;;;5032754;28;20028;-37
2022/05/08 06:01:43;;;;;;;10.48;2.63;;;10.60;99.90;;;;;;5032609;28;20044;-31
2022/05/08 06:04:09;;;;;;;7.93;2.83;;;10.70;99.90;;;;;;5032699;28;20049;-33
2022/05/08 06:06:35;;;;;;;12.23;2.53;;;10.60;99.90;;;;;;5032848;28;20049;-32
2022/05/08 06:09:00;;;;;;;8.40;2.38;;;10.70;99.90;;;;;;5032586;28;20456;-31
2022/05/08 06:11:26;;;;;;;16.40;2.70;;;10.80;99.90;;;;;;5032595;28;20021;-37
2022/05/08 06:13:52;;;;;;;12.68;2.90;;;10.80;99.90;;;;;;5032603;28;20021;-35
2022/05/08 06:16:18;;;;;;;24.27;3.17;;;10.90;99.90;;;;;;5032453;28;20029;-34
2022/05/08 06:18:44;;;;;;;12.65;2.40;;;10.90;99.90;;;;;;5032502;28;20028;-34
2022/05/08 06:21:10;;;;;;;16.40;2.38;;;11.20;99.90;;;;;;5032506;28;20093;-31
2022/05/08 06:23:36;;;;;;;19.50;3.25;;;11.50;99.90;;;;;;5032500;28;20026;-35
2022/05/08 06:26:02;;;;;;;12.20;2.45;;;12.30;99.90;;;;;;5032745;28;20036;-33
2022/05/08 06:28:29;;;;;;;11.20;2.25;;;13.00;99.90;;;;;;5035863;28;20086;-29
2022/05/08 06:30:55;;;;;;;17.65;2.42;;;13.30;99.90;;;;;;5036085;28;20486;-30
2022/05/08 06:33:20;;;;;;;9.52;2.08;;;13.80;99.90;;;;;;5035906;28;20026;-34
2022/05/08 06:35:46;;;;;;;13.95;2.67;;;14.40;99.90;;;;;;5036016;28;20021;-30
2022/05/08 06:38:12;;;;;;;10.85;2.20;;;15.10;99.90;;;;;;5035828;28;20103;-29
2022/05/08 06:40:39;;;;;;;15.57;2.40;;;15.70;99.90;;;;;;5034507;28;20434;-34
2022/05/08 06:43:05;;;;;;;10.93;3.20;;;15.90;99.90;;;;;;5035908;28;20504;-37
2022/05/08 06:45:30;;;;;;;12.18;2.15;;;15.90;99.90;;;;;;5035720;28;20025;-31
2022/05/08 06:47:56;;;;;;;16.23;2.75;;;16.00;99.90;;;;;;5035711;28;20025;-29
2022/05/08 06:50:22;;;;;;;20.75;3.45;;;16.40;99.90;;;;;;5035580;28;20096;-31
2022/05/08 06:52:48;;;;;;;16.25;2.55;;;16.70;99.90;;;;;;5035930;28;20101;-40
2022/05/08 06:55:13;;;;;;;17.27;3.35;;;16.70;99.90;;;;;;5035609;28;20574;-33
2022/05/08 06:57:39;;;;;;;13.15;2.20;;;16.90;99.90;;;;;;5035739;28;20382;-30
2022/05/08 07:02:50;;;;;;;8.60;1.85;;;16.50;99.90;;;;;;5035696;28;20608;-33
2022/05/08 07:05:17;;;;;;;4.55;1.95;;;16.20;99.90;;;;;;5035340;28;20021;-32
2022/05/08 07:07:42;;;;;;;16.42;2.25;;;15.60;99.90;;;;;;5034069;28;20029;-31
2022/05/08 07:10:08;;;;;;;13.00;2.10;;;15.60;99.90;;;;;;5035243;28;20108;-32
2022/05/08 07:12:36;;;;;;;3.92;1.70;;;15.50;99.90;;;;;;5035243;28;20025;-33
2022/05/08 07:15:03;;;;;;;11.32;2.25;;;15.30;99.90;;;;;;5035528;28;20420;-32
2022/05/08 07:17:29;;;;;;;10.73;2.20;;;14.70;99.90;;;;;;5035091;28;20095;-38
2022/05/08 07:19:55;;;;;;;12.32;2.25;;;14.20;99.90;;;;;;5035492;28;20032;-36
2022/05/08 07:22:22;;;;;;;20.27;2.38;;;13.80;99.90;;;;;;5035199;28;20101;-37
2022/05/08 07:24:48;;;;;;;6.45;1.83;;;13.40;99.90;;;;;;5035067;28;20097;-37
2022/05/08 07:27:13;;;;;;;14.27;2.80;;;13.10;99.90;;;;;;5035015;28;20173;-38
2022/05/08 07:29:43;;;;;;;11.48;2.38;;;12.90;99.90;;;;;;5035229;28;20060;-38
2022/05/08 07:32:09;;;;;;;14.98;1.77;;;12.80;99.90;;;;;;5034995;28;20025;-37
2022/05/08 07:37:19;;;;;;;8.13;2.47;;;13.40;99.90;;;;;;5034475;28;20032;-38
2022/05/08 07:39:45;;;;;;;13.75;2.10;;;13.40;99.90;;;;;;5034722;28;20097;-37
2022/05/08 07:42:10;;;;;;;10.85;1.83;;;13.40;99.90;;;;;;5034725;28;20032;-38
2022/05/08 07:44:36;;;;;;;9.13;2.40;;;13.40;99.90;;;;;;5034626;28;20025;-38
2022/05/08 07:47:02;;;;;;;14.63;2.58;;;13.30;99.90;;;;;;5033345;28;20095;-39
2022/05/08 07:49:28;;;;;;;9.55;2.33;;;13.40;99.90;;;;;;5034567;28;20057;-38
2022/05/08 07:51:53;;;;;;;10.70;2.33;;;13.40;99.90;;;;;;5034540;28;20505;-37
2022/05/08 07:54:19;;;;;;;18.85;3.13;;;13.70;99.90;;;;;;5034501;28;20030;-37
2022/05/08 07:56:45;;;;;;;13.60;2.70;;;13.90;99.90;;;;;;5033056;28;20037;-38
2022/05/08 07:59:11;;;;;;;12.40;1.83;;;14.00;99.90;;;;;;5034385;28;20060;-38
2022/05/08 08:01:36;;;;;;;14.25;2.13;;;13.90;99.90;;;;;;5034265;28;20021;-38
2022/05/08 08:04:04;;;;;;;15.35;2.38;;;13.80;99.90;;;;;;5034325;28;20052;-38
2022/05/08 08:06:31;;;;;;;9.90;2.78;;;13.60;99.90;;;;;;5033001;28;20025;-46
2022/05/08 08:09:00;;;;;;;11.60;2.53;;;13.70;99.90;;;;;;5034202;28;20386;-29
2022/05/08 08:11:26;;;;;;;5.07;1.88;;;13.80;99.90;;;;;;5034105;28;20026;-38
2022/05/08 08:13:51;;;;;;;11.93;1.70;;;13.80;99.90;;;;;;5034092;28;20026;-31
2022/05/08 08:16:17;;;;;;;11.73;2.70;;;13.80;99.90;;;;;;5032214;28;20044;-48
2022/05/08 08:18:44;;;;;;;12.02;1.70;;;13.70;99.90;;;;;;5033980;28;20025;-32
2022/05/08 08:21:11;;;;;;;7.43;2.53;;;13.90;99.90;;;;;;5033944;28;20433;-31
2022/05/08 08:23:37;;;;;;;13.30;3.38;;;14.20;99.90;;;;;;5034057;28;20079;-32
2022/05/08 08:26:03;;;;;;;11.25;1.73;;;14.50;99.90;;;;;;5033828;28;20026;-29
2022/05/08 08:28:29;;;;;;;15.57;2.40;;;14.80;99.90;;;;;;5034034;28;20022;-28
2022/05/08 08:30:57;;;;;;;5.45;1.80;;;15.00;99.90;;;;;;5033706;28;20381;-31
2022/05/08 08:33:26;;;;;;;8.13;1.50;;;15.10;99.90;;;;;;5033923;28;20030;-39
2022/05/08 08:35:53;;;;;;;12.00;3.10;;;15.30;99.90;;;;;;5032414;28;20496;-29
2022/05/08 08:38:18;;;;;;;13.05;1.92;;;15.90;99.90;;;;;;5033578;28;20040;-29
2022/05/08 08:40:48;;;;;;;15.38;2.53;;;16.40;99.90;;;;;;5033599;28;20378;-36
2022/05/08 08:43:18;;;;;;;11.05;2.15;;;16.90;99.30;;;;;;5033518;28;20493;-30
2022/05/08 08:48:29;;;;;;;6.75;1.45;;;16.60;99.40;;;;;;5033741;28;20398;-32
2022/05/08 08:50:59;;;;;;;6.83;1.77;;;16.60;99.30;;;;;;5033265;28;20100;-32
2022/05/08 08:53:26;;;;;;;6.70;2.03;;;16.80;98.90;;;;;;5033481;28;20268;-29
2022/05/08 08:55:52;;;;;;;7.53;1.95;;;16.80;98.50;;;;;;5033321;28;20520;-32
2022/05/08 08:58:19;;;;;;;9.75;1.20;;;16.70;98.80;;;;;;5033535;28;20022;-28
2022/05/08 09:00:50;;;;;;;7.35;1.55;;;16.90;98.80;;;;;;5033286;28;20071;-40
2022/05/08 09:03:19;;;;;;;8.02;1.92;;;16.90;98.30;;;;;;5033233;28;20418;-29
2022/05/08 09:05:45;;;;;;;5.90;1.67;;;16.90;98.20;;;;;;5033288;28;20382;-30
2022/05/08 09:08:31;;;;;;;7.63;1.58;;;17.00;98.30;;;;;;5033457;28;20037;-28
2022/05/08 09:10:58;;;;;;;7.07;1.60;;;17.20;98.10;;;;;;5033284;28;20029;-33
2022/05/08 09:13:27;;;;;;;6.10;1.77;;;16.60;97.90;;;;;;5033162;28;20022;-28
2022/05/08 09:16:05;;;;;;;7.82;1.20;;;16.40;98.80;;;;;;5033209;28;20036;-28
2022/05/08 09:18:46;;;;;;;7.03;1.60;;;16.30;98.40;;;;;;5032798;28;20052;-28
2022/05/08 09:24:13;;;;;;;9.38;1.73;;;16.60;97.90;;;;;;5033236;28;20513;-28
2022/05/08 09:26:39;;;;;;;5.72;1.48;;;17.10;97.50;;;;;;5033258;28;20048;-33
2022/05/08 09:29:05;;;;;;;7.25;1.63;;;17.30;96.70;;;;;;5033228;28;20422;-31
2022/05/08 09:31:40;;;;;;;3.53;1.30;;;17.80;96.80;;;;;;5032959;28;20064;-29
2022/05/08 09:34:05;;;;;;;7.30;1.50;;;18.30;96.30;;;;;;5033160;28;20021;-29
2022/05/08 09:36:31;;;;;;;8.55;1.52;;;18.60;95.70;;;;;;5032943;28;20025;-30
2022/05/08 09:38:58;;;;;;;9.57;1.75;;;18.20;95.60;;;;;;5032837;28;20065;-30
2022/05/08 09:41:27;;;;;;;13.85;1.55;;;17.60;96.70;;;;;;5032856;28;20378;-31
2022/05/08 09:43:55;;;;;;;8.82;1.70;;;17.60;96.40;;;;;;5032844;28;20068;-36
2022/05/08 09:46:22;;;;;;;7.50;1.88;;;17.70;96.60;;;;;;5032822;28;20024;-28
2022/05/08 09:48:48;;;;;;;7.35;2.05;;;17.90;96.60;;;;;;5032787;28;20087;-38
2022/05/08 09:51:17;;;;;;;4.85;2.00;;;18.20;96.20;;;;;;5032746;28;20064;-33
2022/05/08 09:53:46;;;;;;;7.25;1.65;;;17.80;96.30;;;;;;5032758;28;20033;-29
2022/05/08 09:56:13;;;;;;;7.57;1.95;;;17.30;96.20;;;;;;5032786;28;20053;-32
2022/05/08 09:58:43;;;;;;;2.43;1.67;;;17.00;96.80;;;;;;5032760;28;20382;-29
2022/05/08 10:01:09;;;;;;;13.77;1.58;;;17.30;97.00;;;;;;5032738;28;20029;-28
2022/05/08 10:03:35;;;;;;;7.00;1.58;;;17.40;96.40;;;;;;5036360;28;20022;-29
2022/05/08 10:06:02;;;;;;;10.63;1.92;;;17.70;96.40;;;;;;5036544;28;20400;-28
2022/05/08 10:08:35;;;;;;;2.08;1.13;;;18.00;96.10;;;;;;5036370;28;20021;-32
2022/05/08 10:13:58;;;;;;;4.13;1.50;;;17.20;95.90;;;;;;5036548;28;20075;-32
2022/05/08 10:16:43;;;;;;;11.80;1.75;;;16.80;96.10;;;;;;5036292;28;20079;-36
2022/05/08 10:19:17;;;;;;;8.10;2.25;;;16.50;96.90;;;;;;5036509;28;20038;-36
2022/05/08 10:22:09;;;;;;;7.57;1.73;;;16.60;97.20;;;;;;5036474;28;20029;-36
2022/05/08 10:24:43;;;;;;;10.68;1.92;;;16.80;96.30;;;;;;5036075;28;20029;-38
2022/05/08 10:27:24;;;;;;;3.55;1.30;;;17.30;96.90;;;;;;5035993;28;20029;-37
2022/05/08 10:29:49;;;;;;;6.13;1.13;;;17.50;96.30;;;;;;5036048;28;20025;-45
2022/05/08 10:32:33;;;;;;;8.20;1.77;;;18.00;96.00;;;;;;5036004;28;20036;-36
2022/05/08 10:35:18;;;;;;;6.15;1.52;;;18.30;95.40;;;;;;5035940;28;20370;-36
2022/05/08 10:37:51;;;;;;;2.90;1.30;;;18.10;95.50;;;;;;5035751;28;20030;-36
2022/05/08 10:40:23;;;;;;;11.60;2.22;;;17.80;95.40;;;;;;5035833;28;20428;-36
2022/05/08 10:43:14;;;;;;;6.82;1.67;;;17.80;95.40;;;;;;5035672;28;20026;-36
2022/05/08 10:45:43;;;;;;;7.82;1.83;;;17.80;95.20;;;;;;5035157;28;20038;-37
2022/05/08 10:48:15;;;;;;;6.40;1.45;;;17.70;95.10;;;;;;5035889;28;20382;-37
2022/05/08 10:50:43;;;;;;;5.93;1.30;;;17.70;95.00;;;;;;5035863;28;20028;-37
2022/05/08 10:53:20;;;;;;;5.93;1.08;;;17.70;95.00;;;;;;5035844;28;20446;-37
2022/05/08 10:55:45;;;;;;;3.85;1.45;;;17.70;95.20;;;;;;5035500;28;20591;-38
2022/05/08 10:58:11;;;;;;;7.18;2.05;;;17.80;94.90;;;;;;5035368;28;20110;-44
2022/05/08 11:00:36;;;;;;;9.20;1.65;;;17.90;94.80;;;;;;5035335;28;20022;-37
2022/05/08 11:03:02;;;;;;;2.72;1.10;;;17.50;94.20;;;;;;5035344;28;20489;-36
2022/05/08 11:05:32;;;;;;;4.68;1.48;;;17.20;94.70;;;;;;5034017;28;20029;-36
2022/05/08 11:08:04;;;;;;;1.50;1.15;;;17.10;94.20;;;;;;5035276;28;20056;-37
2022/05/08 11:10:36;;;;;;;7.10;1.25;;;17.10;94.90;;;;;;5034973;28;20036;-36
2022/05/08 11:13:11;;;;;;;4.78;1.10;;;17.20;94.50;;;;;;5034411;28;20053;-38
2022/05/08 11:15:48;;;;;;;6.07;1.80;;;17.10;95.10;;;;;;5034993;28;20022;-38
2022/05/08 11:18:22;;;;;;;14.00;2.08;;;17.50;95.10;;;;;;5034932;28;20107;-38
2022/05/08 11:20:57;;;;;;;4.10;1.10;;;17.40;95.00;;;;;;5033965;28;20033;-34
2022/05/08 11:23:25;;;;;;;4.47;1.00;;;17.40;94.70;;;;;;5035250;28;20030;-34
2022/05/08 11:25:53;;;;;;;8.75;1.27;;;17.50;94.60;;;;;;5033682;28;20025;-34
2022/05/08 11:28:21;;;;;;;6.38;1.30;;;17.50;94.20;;;;;;5035213;28;20490;-32
2022/05/08 11:30:49;;;;;;;9.82;1.95;;;17.40;94.60;;;;;;5035086;28;20437;-29
2022/05/08 11:36:04;;;;;;;3.90;1.13;;;17.50;94.00;;;;;;5035018;28;20064;-32
2022/05/08 11:38:50;;;;;;;6.72;1.40;;;17.10;95.20;;;;;;5034403;28;20116;-32
2022/05/08 11:41:42;;;;;;;2.35;1.00;;;17.30;94.50;;;;;;5033390;28;20101;-35
2022/05/08 11:44:13;;;;;;;3.63;1.35;;;17.50;94.40;;;;;;5034152;28;20033;-30
2022/05/08 11:46:44;;;;;;;2.08;1.17;;;17.80;94.30;;;;;;5034571;28;20022;-35
2022/05/08 11:49:15;;;;;;;3.17;1.27;;;18.20;94.20;;;;;;5034872;28;20025;-32
2022/05/08 11:51:43;;;;;;;6.65;1.15;;;18.50;94.00;;;;;;5034414;28;20037;-29
2022/05/08 11:54:22;;;;;;;9.10;1.00;;;18.50;93.40;;;;;;5034426;28;20032;-38
2022/05/08 11:56:53;;;;;;;3.75;1.88;;;18.60;94.10;;;;;;5034541;28;20032;-33
2022/05/08 11:59:20;;;;;;;3.47;1.40;;;18.60;93.80;;;;;;5034693;28;20489;-37
2022/05/08 12:01:54;;;;;;;8.35;1.23;;;18.90;94.20;;;;;;5034505;28;20388;-37
2022/05/08 12:04:29;;;;;;;5.63;1.08;;;19.10;92.90;;;;;;5034199;28;20123;-38
2022/05/08 12:06:59;;;;;;;9.50;1.38;;;18.90;92.70;;;;;;5032914;28;20024;-31
2022/05/08 12:09:26;;;;;;;4.20;1.42;;;18.80;93.20;;;;;;5034435;28;20414;-34
2022/05/08 12:11:51;;;;;;;3.23;1.20;;;18.80;92.70;;;;;;5034033;28;20115;-34
2022/05/08 12:14:30;;;;;;;7.82;1.83;;;18.70;93.00;;;;;;5034336;28;20315;-31
2022/05/08 12:17:01;;;;;;;17.52;1.55;;;18.80;92.60;;;;;;5032150;28;20033;-33
2022/05/08 12:19:27;;;;;;;2.53;1.50;;;18.80;93.90;;;;;;5034051;28;20036;-31
2022/05/08 12:21:54;;;;;;;5.75;1.17;;;18.70;92.30;;;;;;5034271;28;20091;-29
2022/05/08 12:24:21;;;;;;;5.25;1.50;;;18.40;93.40;;;;;;5033375;28;20017;-34
2022/05/08 12:26:48;;;;;;;5.53;1.40;;;18.40;93.10;;;;;;5033960;28;20025;-31
2022/05/08 12:29:31;;;;;;;2.65;1.10;;;18.70;91.90;;;;;;5033784;28;20025;-30
2022/05/08 12:31:56;;;;;;;5.15;1.75;;;18.90;92.40;;;;;;5033728;28;20039;-29
2022/05/08 12:34:22;;;;;;;4.50;1.20;;;18.80;93.10;;;;;;5033529;28;20079;-34
2022/05/08 12:36:48;;;;;;;6.90;0.93;;;19.00;93.30;;;;;;5033686;28;20053;-31
2022/05/08 12:39:19;;;;;;;1.98;0.98;;;19.30;92.50;;;;;;5033595;28;20541;-33
2022/05/08 12:41:45;;;;;;;4.57;2.42;;;19.60;91.80;;;;;;5033812;28;20044;-32
2022/05/08 12:44:12;;;;;;;6.25;1.17;;;19.80;91.90;;;;;;5032139;28;20567;-30
2022/05/08 12:46:38;;;;;;;4.50;0.98;;;19.90;92.30;;;;;;5033574;28;20390;-32
2022/05/08 12:49:04;;;;;;;3.97;1.58;;;19.70;91.90;;;;;;5033406;28;20029;-42
2022/05/08 12:51:33;;;;;;;5.78;1.00;;;19.60;92.10;;;;;;5033724;28;20047;-33
2022/05/08 12:54:01;;;;;;;4.28;1.13;;;19.50;93.30;;;;;;5033693;28;20362;-36
2022/05/08 12:56:28;;;;;;;1.17;0.98;;;19.40;94.00;;;;;;5033674;28;20048;-32
2022/05/08 13:01:37;;;;;;;7.07;2.17;;;19.20;94.60;;;;;;5033165;28;20528;-31
2022/05/08 13:04:05;;;;;;;2.42;1.20;;;18.80;95.10;;;;;;5033483;28;20072;-30
2022/05/08 13:06:31;;;;;;;1.50;1.17;;;19.10;95.40;;;;;;5031970;28;20463;-32
2022/05/08 13:08:56;;;;;;;2.97;0.88;;;19.10;93.70;;;;;;5031863;28;20064;-37
2022/05/08 13:11:22;;;;;;;7.03;1.45;;;19.20;93.10;;;;;;5033352;28;20038;-30
2022/05/08 13:13:48;;;;;;;7.10;1.55;;;19.20;93.60;;;;;;5033474;28;20025;-36
2022/05/08 13:16:15;;;;;;;3.00;1.08;;;19.20;93.80;;;;;;5033124;28;20028;-33
2022/05/08 13:18:41;;;;;;;5.07;1.27;;;19.40;93.90;;;;;;5032822;28;20053;-31
2022/05/08 13:21:07;;;;;;;5.22;1.30;;;19.20;94.60;;;;;;5033015;28;20025;-33